sensor_id;sensor_type;location;lat;lon;timestamp;P1;durP1;ratioP1;P2;durP2;ratioP2
43933;SDS011;59081;42.706;23.306;2022-07-29T00:00:08;11.80;;;8.57;;
43933;SDS011;59081;42.706;23.306;2022-07-29T00:02:34;16.33;;;10.38;;
43933;SDS011;59081;42.706;23.306;2022-07-29T00:05:00;11.45;;;9.43;;
43933;SDS011;59081;42.706;23.306;2022-07-29T00:07:26;10.93;;;8.80;;
43933;SDS011;59081;42.706;23.306;2022-07-29T00:09:51;10.60;;;8.18;;
43933;SDS011;59081;42.706;23.306;2022-07-29T00:12:17;10.90;;;8.48;;
43933;SDS011;59081;42.706;23.306;2022-07-29T00:14:43;10.50;;;8.85;;
43933;SDS011;59081;42.706;23.306;2022-07-29T00:17:08;10.05;;;7.70;;
43933;SDS011;59081;42.706;23.306;2022-07-29T00:19:34;12.02;;;9.13;;
43933;SDS011;59081;42.706;23.306;2022-07-29T00:21:59;16.25;;;9.90;;
43933;SDS011;59081;42.706;23.306;2022-07-29T00:24:25;10.45;;;9.15;;
43933;SDS011;59081;42.706;23.306;2022-07-29T00:26:51;12.68;;;8.68;;
43933;SDS011;59081;42.706;23.306;2022-07-29T00:29:17;9.90;;;8.13;;
43933;SDS011;59081;42.706;23.306;2022-07-29T00:31:42;11.93;;;9.18;;
43933;SDS011;59081;42.706;23.306;2022-07-29T00:34:08;12.85;;;9.32;;
43933;SDS011;59081;42.706;23.306;2022-07-29T00:36:53;12.27;;;9.23;;
43933;SDS011;59081;42.706;23.306;2022-07-29T00:39:18;13.35;;;9.43;;
43933;SDS011;59081;42.706;23.306;2022-07-29T00:41:44;11.20;;;9.38;;
43933;SDS011;59081;42.706;23.306;2022-07-29T00:44:09;11.30;;;10.10;;
43933;SDS011;59081;42.706;23.306;2022-07-29T00:46:35;16.65;;;11.15;;
43933;SDS011;59081;42.706;23.306;2022-07-29T00:49:00;15.82;;;9.88;;
43933;SDS011;59081;42.706;23.306;2022-07-29T00:51:26;13.00;;;10.15;;
43933;SDS011;59081;42.706;23.306;2022-07-29T00:53:52;13.90;;;10.88;;
43933;SDS011;59081;42.706;23.306;2022-07-29T00:56:18;12.85;;;10.07;;
43933;SDS011;59081;42.706;23.306;2022-07-29T00:58:44;14.93;;;10.90;;
43933;SDS011;59081;42.706;23.306;2022-07-29T01:01:13;13.20;;;10.85;;
43933;SDS011;59081;42.706;23.306;2022-07-29T01:03:38;21.27;;;10.38;;
43933;SDS011;59081;42.706;23.306;2022-07-29T01:06:04;14.68;;;10.95;;
43933;SDS011;59081;42.706;23.306;2022-07-29T01:08:30;12.57;;;10.50;;
43933;SDS011;59081;42.706;23.306;2022-07-29T01:10:57;13.73;;;10.38;;
43933;SDS011;59081;42.706;23.306;2022-07-29T01:13:25;13.88;;;10.60;;
43933;SDS011;59081;42.706;23.306;2022-07-29T01:15:55;14.85;;;10.70;;
43933;SDS011;59081;42.706;23.306;2022-07-29T01:18:29;13.93;;;11.27;;
43933;SDS011;59081;42.706;23.306;2022-07-29T01:34:36;12.95;;;10.95;;
43933;SDS011;59081;42.706;23.306;2022-07-29T01:39:54;13.40;;;11.50;;
43933;SDS011;59081;42.706;23.306;2022-07-29T01:42:32;13.77;;;11.15;;
43933;SDS011;59081;42.706;23.306;2022-07-29T01:45:03;16.50;;;11.70;;
43933;SDS011;59081;42.706;23.306;2022-07-29T01:47:37;16.90;;;11.93;;
43933;SDS011;59081;42.706;23.306;2022-07-29T01:50:07;15.43;;;11.50;;
43933;SDS011;59081;42.706;23.306;2022-07-29T01:52:38;20.25;;;12.63;;
43933;SDS011;59081;42.706;23.306;2022-07-29T01:55:11;13.70;;;12.02;;
43933;SDS011;59081;42.706;23.306;2022-07-29T01:57:39;13.77;;;11.77;;
43933;SDS011;59081;42.706;23.306;2022-07-29T02:00:08;17.17;;;12.07;;
43933;SDS011;59081;42.706;23.306;2022-07-29T02:02:34;13.95;;;11.98;;
43933;SDS011;59081;42.706;23.306;2022-07-29T02:05:02;16.98;;;11.90;;
43933;SDS011;59081;42.706;23.306;2022-07-29T02:07:33;16.75;;;12.45;;
43933;SDS011;59081;42.706;23.306;2022-07-29T02:10:00;15.50;;;12.38;;
43933;SDS011;59081;42.706;23.306;2022-07-29T02:12:28;14.55;;;12.23;;
43933;SDS011;59081;42.706;23.306;2022-07-29T02:14:56;15.35;;;11.93;;
43933;SDS011;59081;42.706;23.306;2022-07-29T02:17:49;14.15;;;12.65;;
43933;SDS011;59081;42.706;23.306;2022-07-29T02:20:16;14.45;;;12.20;;
43933;SDS011;59081;42.706;23.306;2022-07-29T02:22:42;19.00;;;11.45;;
43933;SDS011;59081;42.706;23.306;2022-07-29T02:25:09;16.40;;;11.45;;
43933;SDS011;59081;42.706;23.306;2022-07-29T02:27:36;17.55;;;11.70;;
43933;SDS011;59081;42.706;23.306;2022-07-29T02:30:04;17.73;;;11.75;;
43933;SDS011;59081;42.706;23.306;2022-07-29T02:32:31;18.00;;;11.63;;
43933;SDS011;59081;42.706;23.306;2022-07-29T02:34:59;14.75;;;11.27;;
43933;SDS011;59081;42.706;23.306;2022-07-29T02:37:26;13.73;;;11.48;;
43933;SDS011;59081;42.706;23.306;2022-07-29T02:39:54;15.65;;;12.60;;
43933;SDS011;59081;42.706;23.306;2022-07-29T02:42:21;15.70;;;12.40;;
43933;SDS011;59081;42.706;23.306;2022-07-29T02:44:49;14.32;;;12.32;;
43933;SDS011;59081;42.706;23.306;2022-07-29T02:47:27;17.50;;;11.73;;
43933;SDS011;59081;42.706;23.306;2022-07-29T02:52:37;20.80;;;12.88;;
43933;SDS011;59081;42.706;23.306;2022-07-29T02:57:44;16.20;;;12.38;;
43933;SDS011;59081;42.706;23.306;2022-07-29T03:00:14;15.23;;;11.70;;
43933;SDS011;59081;42.706;23.306;2022-07-29T03:02:45;19.27;;;13.93;;
43933;SDS011;59081;42.706;23.306;2022-07-29T03:05:18;17.80;;;13.07;;
43933;SDS011;59081;42.706;23.306;2022-07-29T03:07:46;25.30;;;15.63;;
43933;SDS011;59081;42.706;23.306;2022-07-29T03:10:14;18.17;;;15.25;;
43933;SDS011;59081;42.706;23.306;2022-07-29T03:12:40;23.67;;;15.70;;
43933;SDS011;59081;42.706;23.306;2022-07-29T03:15:07;22.02;;;14.73;;
43933;SDS011;59081;42.706;23.306;2022-07-29T03:17:34;16.98;;;14.65;;
43933;SDS011;59081;42.706;23.306;2022-07-29T03:20:00;17.90;;;13.43;;
43933;SDS011;59081;42.706;23.306;2022-07-29T03:22:26;20.65;;;13.18;;
43933;SDS011;59081;42.706;23.306;2022-07-29T03:24:52;16.08;;;12.48;;
43933;SDS011;59081;42.706;23.306;2022-07-29T03:27:18;20.50;;;11.70;;
43933;SDS011;59081;42.706;23.306;2022-07-29T03:29:43;16.23;;;12.20;;
43933;SDS011;59081;42.706;23.306;2022-07-29T03:32:09;25.60;;;12.35;;
43933;SDS011;59081;42.706;23.306;2022-07-29T03:34:35;14.20;;;11.20;;
43933;SDS011;59081;42.706;23.306;2022-07-29T03:37:02;16.30;;;11.40;;
43933;SDS011;59081;42.706;23.306;2022-07-29T03:39:29;18.13;;;11.73;;
43933;SDS011;59081;42.706;23.306;2022-07-29T03:41:58;15.02;;;11.40;;
43933;SDS011;59081;42.706;23.306;2022-07-29T03:44:25;14.18;;;11.15;;
43933;SDS011;59081;42.706;23.306;2022-07-29T03:46:53;13.88;;;11.75;;
43933;SDS011;59081;42.706;23.306;2022-07-29T03:49:23;15.80;;;11.75;;
43933;SDS011;59081;42.706;23.306;2022-07-29T03:51:50;17.20;;;12.73;;
43933;SDS011;59081;42.706;23.306;2022-07-29T03:54:16;17.85;;;11.65;;
43933;SDS011;59081;42.706;23.306;2022-07-29T03:56:42;15.85;;;11.52;;
43933;SDS011;59081;42.706;23.306;2022-07-29T04:01:42;19.60;;;11.30;;
43933;SDS011;59081;42.706;23.306;2022-07-29T04:04:08;13.85;;;11.65;;
43933;SDS011;59081;42.706;23.306;2022-07-29T04:06:40;17.30;;;13.00;;
43933;SDS011;59081;42.706;23.306;2022-07-29T04:09:08;16.67;;;11.93;;
43933;SDS011;59081;42.706;23.306;2022-07-29T04:11:35;14.10;;;11.98;;
43933;SDS011;59081;42.706;23.306;2022-07-29T04:14:01;20.13;;;12.63;;
43933;SDS011;59081;42.706;23.306;2022-07-29T04:16:27;20.08;;;11.98;;
43933;SDS011;59081;42.706;23.306;2022-07-29T04:18:52;17.98;;;11.88;;
43933;SDS011;59081;42.706;23.306;2022-07-29T04:21:18;21.52;;;14.02;;
43933;SDS011;59081;42.706;23.306;2022-07-29T04:23:43;16.38;;;12.05;;
43933;SDS011;59081;42.706;23.306;2022-07-29T04:26:10;14.15;;;10.75;;
43933;SDS011;59081;42.706;23.306;2022-07-29T04:28:36;17.27;;;10.77;;
43933;SDS011;59081;42.706;23.306;2022-07-29T04:31:04;13.40;;;10.57;;
43933;SDS011;59081;42.706;23.306;2022-07-29T04:33:30;11.15;;;8.95;;
43933;SDS011;59081;42.706;23.306;2022-07-29T04:35:55;12.05;;;8.30;;
43933;SDS011;59081;42.706;23.306;2022-07-29T04:38:20;17.00;;;9.32;;
43933;SDS011;59081;42.706;23.306;2022-07-29T04:40:47;12.35;;;8.73;;
43933;SDS011;59081;42.706;23.306;2022-07-29T04:43:12;13.85;;;8.95;;
43933;SDS011;59081;42.706;23.306;2022-07-29T04:45:38;13.80;;;9.68;;
43933;SDS011;59081;42.706;23.306;2022-07-29T04:48:03;11.85;;;9.23;;
43933;SDS011;59081;42.706;23.306;2022-07-29T04:50:29;12.30;;;7.95;;
43933;SDS011;59081;42.706;23.306;2022-07-29T04:52:55;13.38;;;9.27;;
43933;SDS011;59081;42.706;23.306;2022-07-29T04:55:20;12.93;;;9.02;;
43933;SDS011;59081;42.706;23.306;2022-07-29T04:57:46;13.07;;;9.88;;
43933;SDS011;59081;42.706;23.306;2022-07-29T05:00:11;12.32;;;8.88;;
43933;SDS011;59081;42.706;23.306;2022-07-29T05:02:37;15.43;;;9.95;;
43933;SDS011;59081;42.706;23.306;2022-07-29T05:05:03;12.88;;;8.68;;
43933;SDS011;59081;42.706;23.306;2022-07-29T05:07:29;12.98;;;8.40;;
43933;SDS011;59081;42.706;23.306;2022-07-29T05:09:54;10.00;;;7.65;;
43933;SDS011;59081;42.706;23.306;2022-07-29T05:12:22;11.52;;;7.80;;
43933;SDS011;59081;42.706;23.306;2022-07-29T05:14:48;13.02;;;8.43;;
43933;SDS011;59081;42.706;23.306;2022-07-29T05:17:13;11.13;;;7.93;;
43933;SDS011;59081;42.706;23.306;2022-07-29T05:19:39;10.93;;;7.82;;
43933;SDS011;59081;42.706;23.306;2022-07-29T05:22:04;10.07;;;7.28;;
43933;SDS011;59081;42.706;23.306;2022-07-29T05:24:30;18.60;;;7.75;;
43933;SDS011;59081;42.706;23.306;2022-07-29T05:26:56;12.10;;;7.63;;
43933;SDS011;59081;42.706;23.306;2022-07-29T05:29:21;13.45;;;7.68;;
43933;SDS011;59081;42.706;23.306;2022-07-29T05:31:46;8.40;;;6.57;;
43933;SDS011;59081;42.706;23.306;2022-07-29T05:34:12;11.32;;;7.88;;
43933;SDS011;59081;42.706;23.306;2022-07-29T05:36:38;11.07;;;7.53;;
43933;SDS011;59081;42.706;23.306;2022-07-29T05:39:03;10.90;;;7.95;;
43933;SDS011;59081;42.706;23.306;2022-07-29T05:41:31;11.88;;;7.85;;
43933;SDS011;59081;42.706;23.306;2022-07-29T05:43:57;9.93;;;7.00;;
43933;SDS011;59081;42.706;23.306;2022-07-29T05:46:23;9.80;;;7.18;;
43933;SDS011;59081;42.706;23.306;2022-07-29T05:48:49;9.90;;;6.57;;
43933;SDS011;59081;42.706;23.306;2022-07-29T05:51:14;11.05;;;6.80;;
43933;SDS011;59081;42.706;23.306;2022-07-29T05:53:40;12.98;;;6.47;;
43933;SDS011;59081;42.706;23.306;2022-07-29T05:56:06;30.50;;;13.70;;
43933;SDS011;59081;42.706;23.306;2022-07-29T05:58:32;15.27;;;8.05;;
43933;SDS011;59081;42.706;23.306;2022-07-29T06:00:57;17.73;;;8.95;;
43933;SDS011;59081;42.706;23.306;2022-07-29T06:03:26;11.25;;;7.13;;
43933;SDS011;59081;42.706;23.306;2022-07-29T06:05:52;13.80;;;7.13;;
43933;SDS011;59081;42.706;23.306;2022-07-29T06:08:17;9.90;;;6.63;;
43933;SDS011;59081;42.706;23.306;2022-07-29T06:10:43;8.30;;;6.07;;
43933;SDS011;59081;42.706;23.306;2022-07-29T06:13:10;9.48;;;6.57;;
43933;SDS011;59081;42.706;23.306;2022-07-29T06:15:36;15.18;;;7.60;;
43933;SDS011;59081;42.706;23.306;2022-07-29T06:18:02;7.47;;;6.22;;
43933;SDS011;59081;42.706;23.306;2022-07-29T06:20:28;6.68;;;5.95;;
43933;SDS011;59081;42.706;23.306;2022-07-29T06:22:55;9.82;;;5.65;;
43933;SDS011;59081;42.706;23.306;2022-07-29T06:25:21;9.07;;;5.72;;
43933;SDS011;59081;42.706;23.306;2022-07-29T06:27:46;7.45;;;5.63;;
43933;SDS011;59081;42.706;23.306;2022-07-29T06:30:12;10.30;;;6.20;;
43933;SDS011;59081;42.706;23.306;2022-07-29T06:32:38;15.52;;;6.65;;
43933;SDS011;59081;42.706;23.306;2022-07-29T06:35:03;9.68;;;5.53;;
43933;SDS011;59081;42.706;23.306;2022-07-29T06:37:29;7.30;;;5.10;;
43933;SDS011;59081;42.706;23.306;2022-07-29T06:39:55;6.20;;;5.35;;
43933;SDS011;59081;42.706;23.306;2022-07-29T06:42:42;8.77;;;4.93;;
43933;SDS011;59081;42.706;23.306;2022-07-29T06:45:10;8.00;;;5.23;;
43933;SDS011;59081;42.706;23.306;2022-07-29T06:47:36;9.60;;;5.68;;
43933;SDS011;59081;42.706;23.306;2022-07-29T06:50:02;6.80;;;5.25;;
43933;SDS011;59081;42.706;23.306;2022-07-29T06:52:28;10.18;;;5.22;;
43933;SDS011;59081;42.706;23.306;2022-07-29T06:54:54;14.52;;;6.47;;
43933;SDS011;59081;42.706;23.306;2022-07-29T06:57:20;9.05;;;4.55;;
43933;SDS011;59081;42.706;23.306;2022-07-29T06:59:46;9.43;;;5.32;;
43933;SDS011;59081;42.706;23.306;2022-07-29T07:02:12;6.07;;;4.10;;
43933;SDS011;59081;42.706;23.306;2022-07-29T07:04:37;9.43;;;4.30;;
43933;SDS011;59081;42.706;23.306;2022-07-29T07:07:03;8.98;;;4.35;;
43933;SDS011;59081;42.706;23.306;2022-07-29T07:09:28;9.30;;;4.78;;
43933;SDS011;59081;42.706;23.306;2022-07-29T07:11:53;9.52;;;4.15;;
43933;SDS011;59081;42.706;23.306;2022-07-29T07:14:19;6.45;;;4.45;;
43933;SDS011;59081;42.706;23.306;2022-07-29T07:16:44;6.68;;;5.07;;
43933;SDS011;59081;42.706;23.306;2022-07-29T07:19:10;5.35;;;3.72;;
43933;SDS011;59081;42.706;23.306;2022-07-29T07:21:35;6.28;;;4.05;;
43933;SDS011;59081;42.706;23.306;2022-07-29T07:24:01;5.57;;;3.70;;
43933;SDS011;59081;42.706;23.306;2022-07-29T07:26:26;6.20;;;3.85;;
43933;SDS011;59081;42.706;23.306;2022-07-29T07:28:52;3.67;;;2.75;;
43933;SDS011;59081;42.706;23.306;2022-07-29T07:31:18;7.30;;;4.40;;
43933;SDS011;59081;42.706;23.306;2022-07-29T07:33:43;12.00;;;4.30;;
43933;SDS011;59081;42.706;23.306;2022-07-29T07:36:09;4.05;;;3.60;;
43933;SDS011;59081;42.706;23.306;2022-07-29T07:38:34;7.50;;;3.90;;
43933;SDS011;59081;42.706;23.306;2022-07-29T07:41:00;7.35;;;3.83;;
43933;SDS011;59081;42.706;23.306;2022-07-29T07:43:26;10.52;;;4.22;;
43933;SDS011;59081;42.706;23.306;2022-07-29T07:45:51;6.25;;;3.60;;
43933;SDS011;59081;42.706;23.306;2022-07-29T07:48:17;5.35;;;3.72;;
43933;SDS011;59081;42.706;23.306;2022-07-29T07:50:43;6.88;;;3.30;;
43933;SDS011;59081;42.706;23.306;2022-07-29T07:53:08;7.43;;;3.20;;
43933;SDS011;59081;42.706;23.306;2022-07-29T07:55:38;5.65;;;4.22;;
43933;SDS011;59081;42.706;23.306;2022-07-29T07:58:05;7.25;;;4.05;;
43933;SDS011;59081;42.706;23.306;2022-07-29T08:00:30;7.93;;;3.83;;
43933;SDS011;59081;42.706;23.306;2022-07-29T08:02:57;4.13;;;3.30;;
43933;SDS011;59081;42.706;23.306;2022-07-29T08:05:23;10.40;;;3.85;;
43933;SDS011;59081;42.706;23.306;2022-07-29T08:07:48;6.05;;;4.03;;
43933;SDS011;59081;42.706;23.306;2022-07-29T08:10:15;3.80;;;3.00;;
43933;SDS011;59081;42.706;23.306;2022-07-29T08:13:04;4.90;;;3.95;;
43933;SDS011;59081;42.706;23.306;2022-07-29T08:15:31;6.95;;;4.25;;
43933;SDS011;59081;42.706;23.306;2022-07-29T08:17:56;5.30;;;3.17;;
43933;SDS011;59081;42.706;23.306;2022-07-29T08:20:22;4.15;;;3.25;;
43933;SDS011;59081;42.706;23.306;2022-07-29T08:22:47;5.13;;;3.08;;
43933;SDS011;59081;42.706;23.306;2022-07-29T08:25:13;5.97;;;3.35;;
43933;SDS011;59081;42.706;23.306;2022-07-29T08:27:38;4.40;;;3.42;;
43933;SDS011;59081;42.706;23.306;2022-07-29T08:30:04;6.00;;;3.45;;
43933;SDS011;59081;42.706;23.306;2022-07-29T08:32:30;6.18;;;4.22;;
43933;SDS011;59081;42.706;23.306;2022-07-29T08:34:56;6.75;;;3.80;;
43933;SDS011;59081;42.706;23.306;2022-07-29T08:37:22;4.82;;;2.53;;
43933;SDS011;59081;42.706;23.306;2022-07-29T08:39:47;6.55;;;3.22;;
43933;SDS011;59081;42.706;23.306;2022-07-29T08:42:13;7.53;;;3.30;;
43933;SDS011;59081;42.706;23.306;2022-07-29T08:44:38;4.45;;;3.10;;
43933;SDS011;59081;42.706;23.306;2022-07-29T08:47:04;6.07;;;2.95;;
43933;SDS011;59081;42.706;23.306;2022-07-29T08:49:32;4.60;;;2.63;;
43933;SDS011;59081;42.706;23.306;2022-07-29T08:51:59;4.78;;;2.67;;
43933;SDS011;59081;42.706;23.306;2022-07-29T08:54:25;6.82;;;2.97;;
43933;SDS011;59081;42.706;23.306;2022-07-29T08:56:52;3.85;;;2.88;;
43933;SDS011;59081;42.706;23.306;2022-07-29T08:59:20;13.00;;;3.75;;
43933;SDS011;59081;42.706;23.306;2022-07-29T09:01:47;5.32;;;2.92;;
43933;SDS011;59081;42.706;23.306;2022-07-29T09:04:16;3.65;;;2.75;;
43933;SDS011;59081;42.706;23.306;2022-07-29T09:06:44;5.53;;;3.03;;
43933;SDS011;59081;42.706;23.306;2022-07-29T09:09:12;4.63;;;2.83;;
43933;SDS011;59081;42.706;23.306;2022-07-29T09:11:39;4.35;;;2.85;;
43933;SDS011;59081;42.706;23.306;2022-07-29T09:14:05;6.55;;;2.95;;
43933;SDS011;59081;42.706;23.306;2022-07-29T09:16:44;6.93;;;3.10;;
43933;SDS011;59081;42.706;23.306;2022-07-29T09:19:23;3.53;;;2.72;;
43933;SDS011;59081;42.706;23.306;2022-07-29T09:21:53;3.55;;;3.13;;
43933;SDS011;59081;42.706;23.306;2022-07-29T09:24:23;5.00;;;2.97;;
43933;SDS011;59081;42.706;23.306;2022-07-29T09:26:50;5.45;;;2.90;;
43933;SDS011;59081;42.706;23.306;2022-07-29T09:29:17;6.45;;;3.53;;
43933;SDS011;59081;42.706;23.306;2022-07-29T09:31:44;6.57;;;3.67;;
43933;SDS011;59081;42.706;23.306;2022-07-29T09:34:12;3.35;;;2.85;;
43933;SDS011;59081;42.706;23.306;2022-07-29T09:36:40;3.83;;;3.00;;
43933;SDS011;59081;42.706;23.306;2022-07-29T09:39:11;5.80;;;2.95;;
43933;SDS011;59081;42.706;23.306;2022-07-29T09:41:47;6.05;;;3.08;;
43933;SDS011;59081;42.706;23.306;2022-07-29T09:44:14;5.28;;;2.95;;
43933;SDS011;59081;42.706;23.306;2022-07-29T09:46:40;5.65;;;3.10;;
43933;SDS011;59081;42.706;23.306;2022-07-29T09:49:17;5.13;;;3.20;;
43933;SDS011;59081;42.706;23.306;2022-07-29T09:51:42;5.05;;;2.95;;
43933;SDS011;59081;42.706;23.306;2022-07-29T09:54:21;5.63;;;3.05;;
43933;SDS011;59081;42.706;23.306;2022-07-29T09:56:47;6.80;;;3.30;;
43933;SDS011;59081;42.706;23.306;2022-07-29T09:59:14;22.30;;;3.42;;
43933;SDS011;59081;42.706;23.306;2022-07-29T10:01:39;8.27;;;3.92;;
43933;SDS011;59081;42.706;23.306;2022-07-29T10:04:05;5.55;;;3.30;;
43933;SDS011;59081;42.706;23.306;2022-07-29T10:06:31;3.10;;;2.38;;
43933;SDS011;59081;42.706;23.306;2022-07-29T10:09:09;3.15;;;2.85;;
43933;SDS011;59081;42.706;23.306;2022-07-29T10:11:36;11.95;;;3.30;;
43933;SDS011;59081;42.706;23.306;2022-07-29T10:14:02;3.42;;;2.83;;
43933;SDS011;59081;42.706;23.306;2022-07-29T10:16:29;3.55;;;2.97;;
43933;SDS011;59081;42.706;23.306;2022-07-29T10:19:00;6.28;;;3.22;;
43933;SDS011;59081;42.706;23.306;2022-07-29T10:21:26;4.75;;;2.67;;
43933;SDS011;59081;42.706;23.306;2022-07-29T10:23:52;8.02;;;2.72;;
43933;SDS011;59081;42.706;23.306;2022-07-29T10:26:19;4.32;;;2.58;;
43933;SDS011;59081;42.706;23.306;2022-07-29T10:28:45;5.25;;;3.38;;
43933;SDS011;59081;42.706;23.306;2022-07-29T10:31:22;4.55;;;3.05;;
43933;SDS011;59081;42.706;23.306;2022-07-29T10:40:10;4.65;;;2.17;;
43933;SDS011;59081;42.706;23.306;2022-07-29T10:45:31;3.83;;;2.83;;
43933;SDS011;59081;42.706;23.306;2022-07-29T10:48:04;6.97;;;3.25;;
43933;SDS011;59081;42.706;23.306;2022-07-29T10:53:19;5.28;;;2.80;;
43933;SDS011;59081;42.706;23.306;2022-07-29T10:55:45;4.05;;;2.83;;
43933;SDS011;59081;42.706;23.306;2022-07-29T10:58:20;5.47;;;3.13;;
43933;SDS011;59081;42.706;23.306;2022-07-29T11:00:49;9.10;;;3.42;;
43933;SDS011;59081;42.706;23.306;2022-07-29T11:06:13;4.30;;;2.85;;
43933;SDS011;59081;42.706;23.306;2022-07-29T11:08:39;5.53;;;3.00;;
43933;SDS011;59081;42.706;23.306;2022-07-29T11:13:50;5.03;;;3.20;;
43933;SDS011;59081;42.706;23.306;2022-07-29T11:16:17;4.25;;;3.05;;
43933;SDS011;59081;42.706;23.306;2022-07-29T11:21:41;5.25;;;2.92;;
43933;SDS011;59081;42.706;23.306;2022-07-29T11:24:11;6.57;;;3.05;;
43933;SDS011;59081;42.706;23.306;2022-07-29T11:26:38;3.17;;;2.88;;
43933;SDS011;59081;42.706;23.306;2022-07-29T11:29:19;4.40;;;3.55;;
43933;SDS011;59081;42.706;23.306;2022-07-29T11:31:48;4.35;;;3.17;;
43933;SDS011;59081;42.706;23.306;2022-07-29T11:34:23;5.93;;;3.30;;
43933;SDS011;59081;42.706;23.306;2022-07-29T11:39:31;4.68;;;3.53;;
43933;SDS011;59081;42.706;23.306;2022-07-29T11:47:41;3.72;;;3.15;;
43933;SDS011;59081;42.706;23.306;2022-07-29T11:50:14;4.03;;;3.28;;
43933;SDS011;59081;42.706;23.306;2022-07-29T11:52:42;4.88;;;3.45;;
43933;SDS011;59081;42.706;23.306;2022-07-29T11:55:14;3.95;;;3.28;;
43933;SDS011;59081;42.706;23.306;2022-07-29T12:00:25;3.75;;;3.35;;
43933;SDS011;59081;42.706;23.306;2022-07-29T12:02:53;6.38;;;3.58;;
43933;SDS011;59081;42.706;23.306;2022-07-29T12:05:19;6.15;;;4.00;;
43933;SDS011;59081;42.706;23.306;2022-07-29T12:07:45;4.18;;;2.28;;
43933;SDS011;59081;42.706;23.306;2022-07-29T12:10:12;7.50;;;3.45;;
43933;SDS011;59081;42.706;23.306;2022-07-29T12:12:38;4.65;;;3.45;;
43933;SDS011;59081;42.706;23.306;2022-07-29T12:15:25;5.13;;;3.53;;
43933;SDS011;59081;42.706;23.306;2022-07-29T12:17:51;7.28;;;3.42;;
43933;SDS011;59081;42.706;23.306;2022-07-29T12:20:29;5.20;;;3.00;;
43933;SDS011;59081;42.706;23.306;2022-07-29T12:22:55;6.47;;;3.55;;
43933;SDS011;59081;42.706;23.306;2022-07-29T12:25:22;3.80;;;3.33;;
43933;SDS011;59081;42.706;23.306;2022-07-29T12:27:59;10.57;;;3.63;;
43933;SDS011;59081;42.706;23.306;2022-07-29T12:30:34;4.10;;;3.70;;
43933;SDS011;59081;42.706;23.306;2022-07-29T12:35:39;3.40;;;2.97;;
43933;SDS011;59081;42.706;23.306;2022-07-29T12:38:05;5.40;;;3.28;;
43933;SDS011;59081;42.706;23.306;2022-07-29T12:40:31;4.00;;;3.50;;
43933;SDS011;59081;42.706;23.306;2022-07-29T12:43:07;4.57;;;3.63;;
43933;SDS011;59081;42.706;23.306;2022-07-29T12:45:38;6.28;;;4.20;;
43933;SDS011;59081;42.706;23.306;2022-07-29T12:48:05;4.95;;;4.07;;
43933;SDS011;59081;42.706;23.306;2022-07-29T12:50:33;4.40;;;3.67;;
43933;SDS011;59081;42.706;23.306;2022-07-29T12:53:09;11.82;;;4.28;;
43933;SDS011;59081;42.706;23.306;2022-07-29T12:55:43;4.55;;;4.15;;
43933;SDS011;59081;42.706;23.306;2022-07-29T12:58:14;6.35;;;3.97;;
43933;SDS011;59081;42.706;23.306;2022-07-29T13:01:05;7.03;;;3.55;;
43933;SDS011;59081;42.706;23.306;2022-07-29T13:03:47;6.35;;;4.78;;
43933;SDS011;59081;42.706;23.306;2022-07-29T13:06:57;7.03;;;3.97;;
43933;SDS011;59081;42.706;23.306;2022-07-29T13:09:16;9.55;;;4.38;;
43933;SDS011;59081;42.706;23.306;2022-07-29T13:11:45;7.57;;;4.25;;
43933;SDS011;59081;42.706;23.306;2022-07-29T13:14:13;5.53;;;3.60;;
43933;SDS011;59081;42.706;23.306;2022-07-29T13:17:04;5.95;;;4.30;;
43933;SDS011;59081;42.706;23.306;2022-07-29T13:22:04;5.22;;;4.63;;
43933;SDS011;59081;42.706;23.306;2022-07-29T13:24:29;5.13;;;3.70;;
43933;SDS011;59081;42.706;23.306;2022-07-29T13:26:55;4.82;;;4.32;;
43933;SDS011;59081;42.706;23.306;2022-07-29T13:29:20;5.78;;;4.30;;
43933;SDS011;59081;42.706;23.306;2022-07-29T13:31:46;5.05;;;3.85;;
43933;SDS011;59081;42.706;23.306;2022-07-29T13:34:11;5.50;;;3.55;;
43933;SDS011;59081;42.706;23.306;2022-07-29T13:36:37;5.30;;;4.05;;
43933;SDS011;59081;42.706;23.306;2022-07-29T13:39:03;7.63;;;4.70;;
43933;SDS011;59081;42.706;23.306;2022-07-29T13:41:28;8.52;;;4.05;;
43933;SDS011;59081;42.706;23.306;2022-07-29T13:43:54;4.75;;;4.25;;
43933;SDS011;59081;42.706;23.306;2022-07-29T13:46:20;5.22;;;3.80;;
43933;SDS011;59081;42.706;23.306;2022-07-29T13:48:46;3.92;;;3.53;;
43933;SDS011;59081;42.706;23.306;2022-07-29T13:51:11;4.47;;;3.80;;
43933;SDS011;59081;42.706;23.306;2022-07-29T13:53:37;4.57;;;3.90;;
43933;SDS011;59081;42.706;23.306;2022-07-29T13:56:02;5.70;;;4.00;;
43933;SDS011;59081;42.706;23.306;2022-07-29T13:58:30;5.70;;;3.53;;
43933;SDS011;59081;42.706;23.306;2022-07-29T14:00:57;5.32;;;4.18;;
43933;SDS011;59081;42.706;23.306;2022-07-29T14:03:23;5.50;;;3.70;;
43933;SDS011;59081;42.706;23.306;2022-07-29T14:05:49;4.80;;;3.03;;
43933;SDS011;59081;42.706;23.306;2022-07-29T14:08:14;4.57;;;4.18;;
43933;SDS011;59081;42.706;23.306;2022-07-29T14:10:40;5.07;;;3.63;;
43933;SDS011;59081;42.706;23.306;2022-07-29T14:13:06;4.07;;;3.67;;
43933;SDS011;59081;42.706;23.306;2022-07-29T14:15:31;6.85;;;4.05;;
43933;SDS011;59081;42.706;23.306;2022-07-29T14:17:57;9.70;;;3.83;;
43933;SDS011;59081;42.706;23.306;2022-07-29T14:20:22;6.45;;;3.72;;
43933;SDS011;59081;42.706;23.306;2022-07-29T14:22:47;5.18;;;3.60;;
43933;SDS011;59081;42.706;23.306;2022-07-29T14:25:13;6.18;;;4.15;;
43933;SDS011;59081;42.706;23.306;2022-07-29T14:27:38;4.95;;;4.30;;
43933;SDS011;59081;42.706;23.306;2022-07-29T14:30:04;6.93;;;3.70;;
43933;SDS011;59081;42.706;23.306;2022-07-29T14:32:30;7.60;;;4.55;;
43933;SDS011;59081;42.706;23.306;2022-07-29T14:34:56;5.85;;;4.72;;
43933;SDS011;59081;42.706;23.306;2022-07-29T14:37:21;5.32;;;4.18;;
43933;SDS011;59081;42.706;23.306;2022-07-29T14:39:47;7.32;;;4.57;;
43933;SDS011;59081;42.706;23.306;2022-07-29T14:42:12;4.55;;;4.15;;
43933;SDS011;59081;42.706;23.306;2022-07-29T14:44:38;4.65;;;4.10;;
43933;SDS011;59081;42.706;23.306;2022-07-29T14:47:04;9.48;;;4.57;;
43933;SDS011;59081;42.706;23.306;2022-07-29T14:49:29;6.95;;;3.90;;
43933;SDS011;59081;42.706;23.306;2022-07-29T14:51:55;4.75;;;3.80;;
43933;SDS011;59081;42.706;23.306;2022-07-29T14:54:20;7.72;;;3.90;;
43933;SDS011;59081;42.706;23.306;2022-07-29T14:56:46;5.63;;;3.75;;
43933;SDS011;59081;42.706;23.306;2022-07-29T14:59:14;5.05;;;4.03;;
43933;SDS011;59081;42.706;23.306;2022-07-29T15:01:39;5.80;;;4.22;;
43933;SDS011;59081;42.706;23.306;2022-07-29T15:04:05;4.85;;;4.32;;
43933;SDS011;59081;42.706;23.306;2022-07-29T15:06:30;4.57;;;4.07;;
43933;SDS011;59081;42.706;23.306;2022-07-29T15:08:56;5.82;;;4.40;;
43933;SDS011;59081;42.706;23.306;2022-07-29T15:11:21;4.85;;;4.28;;
43933;SDS011;59081;42.706;23.306;2022-07-29T15:13:47;4.70;;;4.18;;
43933;SDS011;59081;42.706;23.306;2022-07-29T15:16:12;5.45;;;3.90;;
43933;SDS011;59081;42.706;23.306;2022-07-29T15:18:37;6.40;;;4.50;;
43933;SDS011;59081;42.706;23.306;2022-07-29T15:21:03;4.30;;;3.90;;
43933;SDS011;59081;42.706;23.306;2022-07-29T15:23:31;5.47;;;4.10;;
43933;SDS011;59081;42.706;23.306;2022-07-29T15:25:57;7.10;;;4.15;;
43933;SDS011;59081;42.706;23.306;2022-07-29T15:28:22;6.25;;;4.32;;